Weather at Oxnard Airport

Public forecast

Using degrees Fahrenheit for public forecast. Weather courtesy of forecast.io.

Current aviation weather report (METAR) for Oxnard Airport

Retrieved 2021/10/23 00:58 UTC (9 minutes ago):

KOXR 230058Z 30013KT 10SM OVC006 17/15 A2993

Aviation forecast (TAF) for Oxnard Airport

Retrieved 2021-10-23 00:48 UTC (19 minutes ago):

TAF KOXR 222347Z 2300/2324 28010KT P6SM BKN014 FM230300 27008KT 5SM BR OVC008 FM230500 VRB03KT 3SM BR VCFG OVC004 FM231600 VRB03KT 5SM BR OVC008 FM231900 23006KT P6SM SKC